createdAt,value
2023-03-12T00:01:59.726Z,16.80
2023-03-12T00:04:27.254Z,18.83
2023-03-12T00:06:54.386Z,18.63
2023-03-12T00:09:20.955Z,16.00
2023-03-12T00:11:47.540Z,17.70
2023-03-12T00:14:14.122Z,19.20
2023-03-12T00:16:40.818Z,17.65
2023-03-12T00:19:07.412Z,17.88
2023-03-12T00:21:33.994Z,18.40
2023-03-12T00:24:00.513Z,14.88
2023-03-12T00:26:27.047Z,16.38
2023-03-12T00:28:53.816Z,15.73
2023-03-12T00:31:27.551Z,15.15
2023-03-12T00:36:24.854Z,15.45
2023-03-12T00:38:52.299Z,15.82
2023-03-12T00:41:21.854Z,14.95
2023-03-12T00:43:49.258Z,17.00
2023-03-12T00:46:15.849Z,13.68
2023-03-12T00:48:42.422Z,13.30
2023-03-12T00:51:09.469Z,14.75
2023-03-12T00:53:36.161Z,12.73
2023-03-12T00:56:04.126Z,15.93
2023-03-12T00:58:31.020Z,12.88
2023-03-12T01:00:57.764Z,13.10
2023-03-12T01:03:24.565Z,11.77
2023-03-12T01:05:54.604Z,13.95
2023-03-12T01:08:22.033Z,12.85
2023-03-12T01:10:48.585Z,13.73
2023-03-12T01:13:15.218Z,10.52
2023-03-12T01:15:41.753Z,9.95
2023-03-12T01:18:08.698Z,12.27
2023-03-12T01:20:35.380Z,11.75
2023-03-12T01:23:01.917Z,11.80
2023-03-12T01:25:28.461Z,10.50
2023-03-12T01:27:55.115Z,10.48
2023-03-12T01:30:21.651Z,11.45
2023-03-12T01:32:48.311Z,8.85
2023-03-12T01:35:14.878Z,11.45
2023-03-12T01:37:41.383Z,9.25
2023-03-12T01:40:08.367Z,11.05
2023-03-12T01:42:34.869Z,10.15
2023-03-12T01:45:03.252Z,10.27
2023-03-12T01:47:33.301Z,9.55
2023-03-12T01:50:01.322Z,10.23
2023-03-12T01:52:32.001Z,9.82
2023-03-12T01:55:07.357Z,10.25
2023-03-12T01:57:43.111Z,9.27
2023-03-12T02:00:13.821Z,9.77
2023-03-12T02:02:41.392Z,8.48
2023-03-12T02:05:17.569Z,10.10
2023-03-12T02:07:44.108Z,9.80
2023-03-12T02:10:11.721Z,8.57
2023-03-12T02:12:38.326Z,7.80
2023-03-12T02:15:05.766Z,8.25
2023-03-12T02:17:32.586Z,9.68
2023-03-12T02:20:25.491Z,8.38
2023-03-12T02:23:03.138Z,8.98
2023-03-12T02:25:36.956Z,8.85
2023-03-12T02:30:32.014Z,7.88
2023-03-12T02:33:01.404Z,9.10
2023-03-12T02:35:27.960Z,6.82
2023-03-12T02:37:56.253Z,6.50
2023-03-12T02:40:29.267Z,7.20
2023-03-12T02:42:57.145Z,7.15
2023-03-12T02:45:25.776Z,6.53
2023-03-12T02:47:52.727Z,6.75
2023-03-12T02:50:19.399Z,9.52
2023-03-12T02:52:46.039Z,6.25
2023-03-12T02:55:12.642Z,6.55
2023-03-12T02:57:39.279Z,7.80
2023-03-12T03:00:11.966Z,7.22
2023-03-12T03:02:39.885Z,5.90
2023-03-12T03:05:06.994Z,7.45
2023-03-12T03:07:33.626Z,5.72
2023-03-12T03:10:04.457Z,6.25
2023-03-12T03:12:31.839Z,6.70
2023-03-12T03:14:58.517Z,6.70
2023-03-12T03:17:25.476Z,6.53
2023-03-12T03:19:52.437Z,6.93
2023-03-12T03:22:20.495Z,5.35
2023-03-12T03:24:47.486Z,5.32
2023-03-12T03:27:14.240Z,4.88
2023-03-12T03:29:41.105Z,5.57
2023-03-12T03:32:07.719Z,6.22
2023-03-12T03:34:34.330Z,7.55
2023-03-12T03:37:00.847Z,6.72
2023-03-12T03:39:29.071Z,8.30
2023-03-12T03:41:55.788Z,6.05
2023-03-12T03:44:23.093Z,5.00
2023-03-12T03:46:50.008Z,5.38
2023-03-12T03:49:16.967Z,4.60
2023-03-12T03:51:43.843Z,5.15
2023-03-12T03:54:11.315Z,5.28
2023-03-12T03:56:37.851Z,6.05
2023-03-12T03:59:04.787Z,5.32
2023-03-12T04:01:31.482Z,4.40
2023-03-12T04:03:59.186Z,6.55
2023-03-12T04:06:26.381Z,6.03
2023-03-12T04:08:53.048Z,4.63
2023-03-12T04:11:21.180Z,3.95
2023-03-12T04:13:48.485Z,4.95
2023-03-12T04:16:16.197Z,5.93
2023-03-12T04:18:43.211Z,3.78
2023-03-12T04:21:12.016Z,4.75
2023-03-12T04:23:39.416Z,5.10
2023-03-12T04:26:06.700Z,6.68
2023-03-12T04:28:34.396Z,5.07
2023-03-12T04:31:06.948Z,5.18
2023-03-12T04:33:36.376Z,6.57
2023-03-12T04:36:03.035Z,4.95
2023-03-12T04:38:30.741Z,5.03
2023-03-12T04:41:04.821Z,6.15
2023-03-12T04:43:32.363Z,3.40
2023-03-12T04:45:59.106Z,5.30
2023-03-12T04:48:26.190Z,3.10
2023-03-12T04:50:53.281Z,3.97
2023-03-12T04:53:20.600Z,3.83
2023-03-12T04:55:47.597Z,3.60
2023-03-12T04:58:14.294Z,3.58
2023-03-12T05:00:41.443Z,3.55
2023-03-12T05:03:08.936Z,4.00
2023-03-12T05:05:35.982Z,7.10
2023-03-12T05:08:03.411Z,4.35
2023-03-12T05:10:30.036Z,2.58
2023-03-12T05:12:56.651Z,7.45
2023-03-12T05:15:23.166Z,4.55
2023-03-12T05:17:49.718Z,4.38
2023-03-12T05:20:17.699Z,3.00
2023-03-12T05:22:44.498Z,2.38
2023-03-12T05:25:11.490Z,3.72
2023-03-12T05:27:38.414Z,3.65
2023-03-12T05:30:06.487Z,4.32
2023-03-12T05:32:33.381Z,3.78
2023-03-12T05:34:59.896Z,5.10
2023-03-12T05:37:26.350Z,4.32
2023-03-12T05:39:54.642Z,4.97
2023-03-12T05:42:21.179Z,4.03
2023-03-12T05:44:47.718Z,3.42
2023-03-12T05:47:14.198Z,5.38
2023-03-12T05:49:40.833Z,4.43
2023-03-12T05:52:07.422Z,3.78
2023-03-12T05:54:33.968Z,5.82
2023-03-12T05:57:00.629Z,4.82
2023-03-12T05:59:27.228Z,6.97
2023-03-12T06:01:53.902Z,6.75
2023-03-12T06:04:20.468Z,5.68
2023-03-12T06:06:47.523Z,6.68
2023-03-12T06:09:14.079Z,3.92
2023-03-12T06:11:40.637Z,4.95
2023-03-12T06:14:07.150Z,5.88
2023-03-12T06:16:33.801Z,4.15
2023-03-12T06:19:02.501Z,4.63
2023-03-12T06:21:31.570Z,5.82
2023-03-12T06:23:58.659Z,6.00
2023-03-12T06:26:25.973Z,4.75
2023-03-12T06:28:53.259Z,6.75
2023-03-12T06:31:21.259Z,4.65
2023-03-12T06:33:47.845Z,5.55
2023-03-12T06:36:14.454Z,3.65
2023-03-12T06:38:41.090Z,5.78
2023-03-12T06:41:14.157Z,4.53
2023-03-12T06:43:41.636Z,3.53
2023-03-12T06:46:12.210Z,5.10
2023-03-12T06:48:41.265Z,5.63
2023-03-12T06:51:13.195Z,4.03
2023-03-12T06:53:42.260Z,4.35
2023-03-12T06:56:09.910Z,4.38
2023-03-12T06:58:36.790Z,3.47
2023-03-12T07:01:04.220Z,5.57
2023-03-12T07:03:31.233Z,4.55
2023-03-12T07:05:58.444Z,10.18
2023-03-12T07:08:26.571Z,3.67
2023-03-12T07:10:53.071Z,3.97
2023-03-12T07:13:19.641Z,3.95
2023-03-12T07:15:46.551Z,5.80
2023-03-12T07:18:13.701Z,4.47
2023-03-12T07:20:42.260Z,6.43
2023-03-12T07:23:09.647Z,4.93
2023-03-12T07:25:38.558Z,5.93
2023-03-12T07:28:05.442Z,6.15
2023-03-12T07:30:33.665Z,5.75
2023-03-12T07:33:12.021Z,7.50
2023-03-12T07:35:39.764Z,7.25
2023-03-12T07:38:07.301Z,6.78
2023-03-12T07:40:34.702Z,4.32
2023-03-12T07:43:02.220Z,6.93
2023-03-12T07:45:28.838Z,7.05
2023-03-12T07:47:55.512Z,6.75
2023-03-12T07:50:22.171Z,7.35
2023-03-12T07:52:49.264Z,8.73
2023-03-12T07:55:16.476Z,10.75
2023-03-12T07:57:43.109Z,7.97
2023-03-12T08:00:10.807Z,9.13
2023-03-12T08:02:37.727Z,8.88
2023-03-12T08:05:04.979Z,8.90
2023-03-12T08:07:32.590Z,10.32
2023-03-12T08:10:00.119Z,6.60
2023-03-12T08:12:27.250Z,12.55
2023-03-12T08:14:53.941Z,10.20
2023-03-12T08:17:20.588Z,8.77
2023-03-12T08:19:47.191Z,9.23
2023-03-12T08:22:13.738Z,8.70
2023-03-12T08:24:40.500Z,7.65
2023-03-12T08:27:07.066Z,8.13
2023-03-12T08:29:33.611Z,7.93
2023-03-12T08:32:05.056Z,7.07
2023-03-12T08:34:33.409Z,8.27
2023-03-12T08:37:00.053Z,10.73
2023-03-12T08:39:26.648Z,8.50
2023-03-12T08:41:55.356Z,8.23
2023-03-12T08:44:23.312Z,8.10
2023-03-12T08:46:50.408Z,9.18
2023-03-12T08:49:17.392Z,7.40
2023-03-12T08:51:43.982Z,8.35
2023-03-12T08:54:10.626Z,6.07
2023-03-12T08:56:41.782Z,7.97
2023-03-12T08:59:12.060Z,6.80
2023-03-12T09:01:41.782Z,9.65
2023-03-12T09:04:10.138Z,6.70
2023-03-12T09:06:38.372Z,7.50
2023-03-12T09:09:05.738Z,7.88
2023-03-12T09:11:34.122Z,8.90
2023-03-12T09:14:46.261Z,9.43
2023-03-12T09:16:48.323Z,7.75
2023-03-12T09:19:15.805Z,15.23
2023-03-12T09:21:42.496Z,8.95
2023-03-12T09:24:10.024Z,6.07
2023-03-12T09:26:36.537Z,6.65
2023-03-12T09:29:03.304Z,8.57
2023-03-12T09:31:32.956Z,7.43
2023-03-12T09:33:59.517Z,8.60
2023-03-12T09:36:26.135Z,8.65
2023-03-12T09:38:52.761Z,8.32
2023-03-12T09:41:27.385Z,7.90
2023-03-12T09:44:02.158Z,8.70
2023-03-12T09:46:35.298Z,9.80
2023-03-12T09:49:10.803Z,9.57
2023-03-12T09:51:45.863Z,9.07
2023-03-12T09:54:36.651Z,9.95
2023-03-12T09:57:09.404Z,8.80
2023-03-12T09:59:37.015Z,8.85
2023-03-12T10:02:18.388Z,9.20
2023-03-12T10:04:59.855Z,9.73
2023-03-12T10:07:31.450Z,9.43
2023-03-12T10:10:30.508Z,10.68
2023-03-12T10:13:25.354Z,8.88
2023-03-12T10:16:22.088Z,8.50
2023-03-12T10:19:10.640Z,9.75
2023-03-12T10:21:58.879Z,8.60
2023-03-12T10:24:51.529Z,10.38
2023-03-12T10:27:18.953Z,9.90
2023-03-12T10:29:49.173Z,7.85
2023-03-12T10:32:21.993Z,7.70
2023-03-12T10:35:13.072Z,9.90
2023-03-12T10:37:44.922Z,9.20
2023-03-12T10:40:17.737Z,9.45
2023-03-12T10:42:44.396Z,9.93
2023-03-12T10:45:10.865Z,10.15
2023-03-12T10:47:44.725Z,11.63
2023-03-12T10:50:29.733Z,14.32
2023-03-12T10:53:22.566Z,15.85
2023-03-12T10:56:05.637Z,16.48
2023-03-12T10:58:42.266Z,17.38
2023-03-12T11:01:14.822Z,17.38
2023-03-12T11:03:42.778Z,19.85
2023-03-12T11:06:15.537Z,18.30
2023-03-12T11:08:43.098Z,20.00
2023-03-12T11:11:10.390Z,18.98
2023-03-12T11:13:41.821Z,20.27
2023-03-12T11:16:17.642Z,21.73
2023-03-12T11:19:02.084Z,25.80
2023-03-12T11:21:29.934Z,25.58
2023-03-12T11:23:56.405Z,34.17
2023-03-12T11:26:36.648Z,29.13
2023-03-12T11:29:17.368Z,43.15
2023-03-12T11:31:57.821Z,45.20
2023-03-12T11:34:31.046Z,39.55
2023-03-12T11:37:26.542Z,35.85
2023-03-12T11:40:30.539Z,45.03
2023-03-12T11:43:41.732Z,39.83
2023-03-12T11:46:18.382Z,36.33
2023-03-12T11:49:03.517Z,35.70
2023-03-12T11:51:52.189Z,38.15
2023-03-12T11:54:38.631Z,39.25
2023-03-12T11:57:26.531Z,39.05
2023-03-12T12:00:17.322Z,43.40
2023-03-12T12:02:56.092Z,48.60
2023-03-12T12:05:27.533Z,45.25
2023-03-12T12:08:03.148Z,52.72
2023-03-12T12:10:47.233Z,51.50
2023-03-12T12:13:41.626Z,47.08
2023-03-12T12:16:42.538Z,53.83
2023-03-12T12:19:28.048Z,52.25
2023-03-12T12:22:37.833Z,49.17
2023-03-12T12:25:38.936Z,47.13
2023-03-12T12:28:15.593Z,51.30
2023-03-12T12:31:13.666Z,48.30
2023-03-12T12:33:50.522Z,51.28
2023-03-12T12:36:18.380Z,48.40
2023-03-12T12:39:11.414Z,53.08
2023-03-12T12:41:43.064Z,47.53
2023-03-12T12:44:36.304Z,47.70
2023-03-12T12:47:06.843Z,45.72
2023-03-12T12:49:51.037Z,49.92
2023-03-12T12:52:22.069Z,43.55
2023-03-12T12:55:04.614Z,49.63
2023-03-12T12:57:36.176Z,47.95
2023-03-12T13:00:22.093Z,40.60
2023-03-12T13:02:50.451Z,47.10
2023-03-12T13:05:45.902Z,44.92
2023-03-12T13:08:34.504Z,44.58
2023-03-12T13:11:22.227Z,43.50
2023-03-12T13:14:11.372Z,49.75
2023-03-12T13:16:40.088Z,54.10
2023-03-12T13:19:27.504Z,45.65
2023-03-12T13:22:26.319Z,45.35
2023-03-12T13:25:14.391Z,51.97
2023-03-12T13:27:44.465Z,54.90
2023-03-12T13:30:33.000Z,55.55
2023-03-12T13:33:04.114Z,55.95
2023-03-12T13:35:36.484Z,51.90
2023-03-12T13:38:06.708Z,55.28
2023-03-12T13:40:36.313Z,51.55
2023-03-12T13:43:14.564Z,51.10
2023-03-12T13:45:47.068Z,57.92
2023-03-12T13:48:20.674Z,53.78
2023-03-12T13:53:32.302Z,59.42
2023-03-12T13:56:10.602Z,51.55
2023-03-12T13:59:00.152Z,51.38
2023-03-12T14:01:36.118Z,49.75
2023-03-12T14:04:08.793Z,52.55
2023-03-12T14:06:56.238Z,49.80
2023-03-12T14:09:41.503Z,52.60
2023-03-12T14:12:20.312Z,52.53
2023-03-12T14:15:18.921Z,54.42
2023-03-12T14:17:45.978Z,47.95
2023-03-12T14:20:21.410Z,51.92
2023-03-12T14:23:12.808Z,50.88
2023-03-12T14:25:43.634Z,43.85
2023-03-12T14:28:20.983Z,47.83
2023-03-12T14:31:01.079Z,47.80
2023-03-12T14:33:33.458Z,45.10
2023-03-12T14:36:12.225Z,45.25
2023-03-12T14:38:44.613Z,44.03
2023-03-12T14:41:19.915Z,44.70
2023-03-12T14:43:46.573Z,46.42
2023-03-12T14:46:20.025Z,45.28
2023-03-12T14:48:51.760Z,53.53
2023-03-12T14:51:24.615Z,48.92
2023-03-12T14:53:52.493Z,47.22
2023-03-12T14:56:30.407Z,47.42
2023-03-12T14:58:58.972Z,47.10
2023-03-12T15:01:32.419Z,53.33
2023-03-12T15:04:03.618Z,47.97
2023-03-12T15:06:36.529Z,49.67
2023-03-12T15:09:05.773Z,46.03
2023-03-12T15:11:35.869Z,46.67
2023-03-12T15:14:14.427Z,45.40
2023-03-12T15:16:43.381Z,42.63
2023-03-12T15:19:14.027Z,46.63
2023-03-12T15:21:40.703Z,42.10
2023-03-12T15:24:11.648Z,42.33
2023-03-12T15:26:38.260Z,43.50
2023-03-12T15:29:13.946Z,45.40
2023-03-12T15:31:45.987Z,41.28
2023-03-12T15:34:18.420Z,44.17
2023-03-12T15:36:48.091Z,37.63
2023-03-12T15:39:31.004Z,41.05
2023-03-12T15:42:07.625Z,41.13
2023-03-12T15:44:47.950Z,41.17
2023-03-12T15:47:18.734Z,38.83
2023-03-12T15:50:09.940Z,36.58
2023-03-12T15:52:37.859Z,39.88
2023-03-12T15:55:12.923Z,42.45
2023-03-12T15:57:49.965Z,39.58
2023-03-12T16:00:21.801Z,45.88
2023-03-12T16:03:03.978Z,51.03
2023-03-12T16:05:34.066Z,49.97
2023-03-12T16:08:31.672Z,48.45
2023-03-12T16:10:58.212Z,46.35
2023-03-12T16:13:31.177Z,46.70
2023-03-12T16:15:58.593Z,46.22
2023-03-12T16:18:25.285Z,45.70
2023-03-12T16:20:52.992Z,46.92
2023-03-12T16:23:19.648Z,46.55
2023-03-12T16:25:49.197Z,41.22
2023-03-12T16:28:18.611Z,47.47
2023-03-12T16:30:45.313Z,48.47
2023-03-12T16:33:14.654Z,45.20
2023-03-12T16:35:41.278Z,43.67
2023-03-12T16:38:10.600Z,41.50
2023-03-12T16:40:39.760Z,42.10
2023-03-12T16:43:14.651Z,42.03
2023-03-12T16:45:46.825Z,43.67
2023-03-12T16:48:21.652Z,45.05
2023-03-12T16:50:51.240Z,42.45
2023-03-12T16:53:18.814Z,41.20
2023-03-12T16:55:52.066Z,38.50
2023-03-12T16:58:20.548Z,35.75
2023-03-12T17:00:48.108Z,37.53
2023-03-12T17:03:49.207Z,39.70
2023-03-12T17:06:22.016Z,40.00
2023-03-12T17:08:48.654Z,39.87
2023-03-12T17:11:24.810Z,43.88
2023-03-12T17:13:58.634Z,38.90
2023-03-12T17:16:25.279Z,36.58
2023-03-12T17:18:51.886Z,36.72
2023-03-12T17:21:20.144Z,41.20
2023-03-12T17:23:50.191Z,40.72
2023-03-12T17:26:18.594Z,36.17
2023-03-12T17:28:45.164Z,40.15
2023-03-12T17:31:11.740Z,37.65
2023-03-12T17:33:38.501Z,39.90
2023-03-12T17:36:08.001Z,38.53
2023-03-12T17:38:35.554Z,33.97
2023-03-12T17:41:02.532Z,35.75
2023-03-12T17:43:29.575Z,33.25
2023-03-12T17:45:56.165Z,38.60
2023-03-12T17:48:25.735Z,34.78
2023-03-12T17:50:52.299Z,31.58
2023-03-12T17:53:19.976Z,31.48
2023-03-12T17:55:47.578Z,31.42
2023-03-12T17:58:14.057Z,32.35
2023-03-12T18:00:40.595Z,29.10
2023-03-12T18:03:07.175Z,31.00
2023-03-12T18:05:33.698Z,26.35
2023-03-12T18:08:00.196Z,30.80
2023-03-12T18:10:26.726Z,31.40
2023-03-12T18:12:53.295Z,43.05
2023-03-12T18:15:19.857Z,41.75
2023-03-12T18:17:49.655Z,42.22
2023-03-12T18:20:25.881Z,50.70
2023-03-12T18:23:01.892Z,46.38
2023-03-12T18:25:28.501Z,45.83
2023-03-12T18:27:56.646Z,46.42
2023-03-12T18:30:23.211Z,42.95
2023-03-12T18:32:49.835Z,42.67
2023-03-12T18:35:16.561Z,43.80
2023-03-12T18:37:45.437Z,44.67
2023-03-12T18:40:12.624Z,46.22
2023-03-12T18:42:46.489Z,46.17
2023-03-12T18:45:13.227Z,49.58
2023-03-12T18:47:39.779Z,57.60
2023-03-12T18:50:08.012Z,51.20
2023-03-12T18:52:34.833Z,47.75
2023-03-12T18:55:01.639Z,49.17
2023-03-12T18:57:28.446Z,47.75
2023-03-12T18:59:55.215Z,47.70
2023-03-12T19:02:22.280Z,57.72
2023-03-12T19:04:49.369Z,47.28
2023-03-12T19:07:17.851Z,47.55
2023-03-12T19:09:44.340Z,46.67
2023-03-12T19:12:10.869Z,47.90
2023-03-12T19:14:37.698Z,47.28
2023-03-12T19:17:04.477Z,49.00
2023-03-12T19:19:30.956Z,46.72
2023-03-12T19:21:57.497Z,45.72
2023-03-12T19:24:24.223Z,49.05
2023-03-12T19:26:50.785Z,45.35
2023-03-12T19:29:17.334Z,43.42
2023-03-12T19:31:43.903Z,45.03
2023-03-12T19:34:10.475Z,47.83
2023-03-12T19:36:36.959Z,43.72
2023-03-12T19:39:06.680Z,39.42
2023-03-12T19:41:40.653Z,41.78
2023-03-12T19:44:07.269Z,41.38
2023-03-12T19:46:33.845Z,34.97
2023-03-12T19:49:00.406Z,37.55
2023-03-12T19:51:27.066Z,39.97
2023-03-12T19:53:53.591Z,40.80
2023-03-12T19:56:21.066Z,38.55
2023-03-12T19:58:48.265Z,37.35
2023-03-12T20:01:14.789Z,37.85
2023-03-12T20:03:43.897Z,35.88
2023-03-12T20:06:11.654Z,37.10
2023-03-12T20:08:38.497Z,35.55
2023-03-12T20:11:07.848Z,34.67
2023-03-12T20:13:35.398Z,31.70
2023-03-12T20:16:02.382Z,28.65
2023-03-12T20:18:28.948Z,35.03
2023-03-12T20:20:55.608Z,32.67
2023-03-12T20:23:22.198Z,30.00
2023-03-12T20:25:50.175Z,32.60
2023-03-12T20:28:17.138Z,31.23
2023-03-12T20:30:44.154Z,32.85
2023-03-12T20:33:10.717Z,27.48
2023-03-12T20:35:37.892Z,28.75
2023-03-12T20:38:04.527Z,29.70
2023-03-12T20:40:31.298Z,29.02
2023-03-12T20:42:57.869Z,31.23
2023-03-12T20:45:24.364Z,28.10
2023-03-12T20:47:51.108Z,28.17
2023-03-12T20:50:17.784Z,30.58
2023-03-12T20:52:45.027Z,27.70
2023-03-12T20:55:11.630Z,27.00
2023-03-12T20:57:38.188Z,27.95
2023-03-12T21:00:05.540Z,25.77
2023-03-12T21:02:32.193Z,25.75
2023-03-12T21:04:58.729Z,27.02
2023-03-12T21:07:25.357Z,24.15
2023-03-12T21:09:51.868Z,35.42
2023-03-12T21:12:18.555Z,38.38
2023-03-12T21:14:45.132Z,30.27
2023-03-12T21:17:13.739Z,30.92
2023-03-12T21:19:41.691Z,35.40
2023-03-12T21:22:08.789Z,35.60
2023-03-12T21:24:35.955Z,28.55
2023-03-12T21:27:02.553Z,29.60
2023-03-12T21:29:29.132Z,28.35
2023-03-12T21:31:55.746Z,29.65
2023-03-12T21:34:23.200Z,30.73
2023-03-12T21:36:49.724Z,30.85
2023-03-12T21:39:17.201Z,29.55
2023-03-12T21:41:43.742Z,29.50
2023-03-12T21:44:10.280Z,26.08
2023-03-12T21:46:36.973Z,24.55
2023-03-12T21:49:03.700Z,23.27
2023-03-12T21:51:30.312Z,24.95
2023-03-12T21:53:58.132Z,29.30
2023-03-12T21:56:28.047Z,22.63
2023-03-12T21:58:56.947Z,23.67
2023-03-12T22:01:24.691Z,27.13
2023-03-12T22:03:51.547Z,23.40
2023-03-12T22:06:18.115Z,23.20
2023-03-12T22:08:49.209Z,24.20
2023-03-12T22:11:16.665Z,26.33
2023-03-12T22:13:43.321Z,24.00
2023-03-12T22:16:12.903Z,23.20
2023-03-12T22:18:41.980Z,24.98
2023-03-12T22:21:14.743Z,22.45
2023-03-12T22:23:41.247Z,20.42
2023-03-12T22:26:08.068Z,24.20
2023-03-12T22:28:35.486Z,25.83
2023-03-12T22:31:07.553Z,20.05
2023-03-12T22:33:37.066Z,21.98
2023-03-12T22:36:08.513Z,25.50
2023-03-12T22:38:36.714Z,20.52
2023-03-12T22:41:27.021Z,18.77
2023-03-12T22:43:56.132Z,23.10
2023-03-12T22:46:24.728Z,19.58
2023-03-12T22:48:57.369Z,19.08
2023-03-12T22:51:24.435Z,21.35
2023-03-12T22:53:51.399Z,21.88
2023-03-12T22:56:18.134Z,21.25
2023-03-12T22:58:44.909Z,22.75
2023-03-12T23:01:14.091Z,21.10
2023-03-12T23:03:42.572Z,20.42
2023-03-12T23:06:15.342Z,21.95
2023-03-12T23:08:42.216Z,22.43
2023-03-12T23:11:10.304Z,17.17
2023-03-12T23:13:39.098Z,18.48
2023-03-12T23:16:11.619Z,19.63
2023-03-12T23:18:38.482Z,18.70
2023-03-12T23:21:08.041Z,20.38
2023-03-12T23:23:35.595Z,19.50
2023-03-12T23:26:03.260Z,17.92
2023-03-12T23:28:32.171Z,16.85
2023-03-12T23:31:07.510Z,16.42
2023-03-12T23:33:34.969Z,17.98
2023-03-12T23:36:07.400Z,15.63
2023-03-12T23:38:37.509Z,16.25
2023-03-12T23:41:10.250Z,13.85
2023-03-12T23:43:36.738Z,16.88
2023-03-12T23:46:05.164Z,16.20
2023-03-12T23:48:33.200Z,19.50
2023-03-12T23:51:14.391Z,15.77
2023-03-12T23:53:43.005Z,16.65
2023-03-12T23:56:12.666Z,17.75
2023-03-12T23:58:39.213Z,15.18
